sensor_id;sensor_type;location;lat;lon;timestamp;P1;durP1;ratioP1;P2;durP2;ratioP2
23266;SDS011;11802;53.160;8.214;2022-08-14T00:00:22;8.55;;;6.95;;
23266;SDS011;11802;53.160;8.214;2022-08-14T00:02:48;11.73;;;7.60;;
23266;SDS011;11802;53.160;8.214;2022-08-14T00:05:18;9.05;;;6.75;;
23266;SDS011;11802;53.160;8.214;2022-08-14T00:07:46;11.02;;;7.00;;
23266;SDS011;11802;53.160;8.214;2022-08-14T00:10:14;12.50;;;7.32;;
23266;SDS011;11802;53.160;8.214;2022-08-14T00:12:48;8.85;;;7.55;;
23266;SDS011;11802;53.160;8.214;2022-08-14T00:17:44;10.55;;;7.68;;
23266;SDS011;11802;53.160;8.214;2022-08-14T00:20:12;9.05;;;7.30;;
23266;SDS011;11802;53.160;8.214;2022-08-14T00:22:39;9.00;;;6.85;;
23266;SDS011;11802;53.160;8.214;2022-08-14T00:25:06;13.50;;;7.72;;
23266;SDS011;11802;53.160;8.214;2022-08-14T00:27:32;8.23;;;7.25;;
23266;SDS011;11802;53.160;8.214;2022-08-14T00:29:58;9.23;;;7.28;;
23266;SDS011;11802;53.160;8.214;2022-08-14T00:32:24;8.25;;;6.90;;
23266;SDS011;11802;53.160;8.214;2022-08-14T00:34:49;10.90;;;7.05;;
23266;SDS011;11802;53.160;8.214;2022-08-14T00:37:15;10.68;;;7.43;;
23266;SDS011;11802;53.160;8.214;2022-08-14T00:39:41;9.93;;;7.30;;
23266;SDS011;11802;53.160;8.214;2022-08-14T00:42:07;8.70;;;6.97;;
23266;SDS011;11802;53.160;8.214;2022-08-14T00:44:32;9.32;;;7.25;;
23266;SDS011;11802;53.160;8.214;2022-08-14T00:46:59;10.38;;;7.50;;
23266;SDS011;11802;53.160;8.214;2022-08-14T00:49:25;8.63;;;7.00;;
23266;SDS011;11802;53.160;8.214;2022-08-14T00:51:52;8.38;;;6.80;;
23266;SDS011;11802;53.160;8.214;2022-08-14T00:54:18;8.85;;;7.10;;
23266;SDS011;11802;53.160;8.214;2022-08-14T00:56:44;9.70;;;6.80;;
23266;SDS011;11802;53.160;8.214;2022-08-14T00:59:09;8.63;;;6.15;;
23266;SDS011;11802;53.160;8.214;2022-08-14T01:01:35;8.15;;;7.20;;
23266;SDS011;11802;53.160;8.214;2022-08-14T01:04:08;8.88;;;6.78;;
23266;SDS011;11802;53.160;8.214;2022-08-14T01:06:35;9.30;;;7.20;;
23266;SDS011;11802;53.160;8.214;2022-08-14T01:09:05;9.52;;;6.43;;
23266;SDS011;11802;53.160;8.214;2022-08-14T01:11:31;9.88;;;6.65;;
23266;SDS011;11802;53.160;8.214;2022-08-14T01:13:57;9.20;;;6.82;;
23266;SDS011;11802;53.160;8.214;2022-08-14T01:16:25;11.43;;;7.00;;
23266;SDS011;11802;53.160;8.214;2022-08-14T01:18:51;12.63;;;6.95;;
23266;SDS011;11802;53.160;8.214;2022-08-14T01:21:37;8.07;;;6.57;;
23266;SDS011;11802;53.160;8.214;2022-08-14T01:24:10;8.07;;;6.70;;
23266;SDS011;11802;53.160;8.214;2022-08-14T01:26:39;7.60;;;6.68;;
23266;SDS011;11802;53.160;8.214;2022-08-14T01:29:06;9.95;;;6.75;;
23266;SDS011;11802;53.160;8.214;2022-08-14T01:31:33;11.55;;;6.93;;
23266;SDS011;11802;53.160;8.214;2022-08-14T01:34:06;15.45;;;6.45;;
23266;SDS011;11802;53.160;8.214;2022-08-14T01:36:32;8.93;;;6.82;;
23266;SDS011;11802;53.160;8.214;2022-08-14T01:39:06;10.48;;;6.90;;
23266;SDS011;11802;53.160;8.214;2022-08-14T01:41:35;8.85;;;6.45;;
23266;SDS011;11802;53.160;8.214;2022-08-14T01:44:09;13.30;;;7.43;;
23266;SDS011;11802;53.160;8.214;2022-08-14T01:46:39;9.23;;;7.28;;
23266;SDS011;11802;53.160;8.214;2022-08-14T01:49:09;9.90;;;6.75;;
23266;SDS011;11802;53.160;8.214;2022-08-14T01:51:37;8.95;;;7.45;;
23266;SDS011;11802;53.160;8.214;2022-08-14T01:54:13;10.63;;;7.28;;
23266;SDS011;11802;53.160;8.214;2022-08-14T01:56:45;10.00;;;6.68;;
23266;SDS011;11802;53.160;8.214;2022-08-14T02:01:48;8.85;;;6.85;;
23266;SDS011;11802;53.160;8.214;2022-08-14T02:04:16;8.75;;;6.75;;
23266;SDS011;11802;53.160;8.214;2022-08-14T02:06:44;12.10;;;7.53;;
23266;SDS011;11802;53.160;8.214;2022-08-14T02:09:11;9.13;;;7.57;;
23266;SDS011;11802;53.160;8.214;2022-08-14T02:11:36;11.32;;;7.63;;
23266;SDS011;11802;53.160;8.214;2022-08-14T02:14:07;11.80;;;7.38;;
23266;SDS011;11802;53.160;8.214;2022-08-14T02:16:35;9.75;;;8.15;;
23266;SDS011;11802;53.160;8.214;2022-08-14T02:19:05;10.23;;;7.60;;
23266;SDS011;11802;53.160;8.214;2022-08-14T02:21:37;9.15;;;7.72;;
23266;SDS011;11802;53.160;8.214;2022-08-14T02:24:04;11.13;;;6.97;;
23266;SDS011;11802;53.160;8.214;2022-08-14T02:26:35;11.35;;;7.28;;
23266;SDS011;11802;53.160;8.214;2022-08-14T02:29:10;8.57;;;6.97;;
23266;SDS011;11802;53.160;8.214;2022-08-14T02:31:39;8.43;;;7.43;;
23266;SDS011;11802;53.160;8.214;2022-08-14T02:34:07;10.35;;;7.15;;
23266;SDS011;11802;53.160;8.214;2022-08-14T02:36:39;9.95;;;7.40;;
23266;SDS011;11802;53.160;8.214;2022-08-14T02:39:06;10.73;;;7.10;;
23266;SDS011;11802;53.160;8.214;2022-08-14T02:41:35;10.85;;;7.35;;
23266;SDS011;11802;53.160;8.214;2022-08-14T02:44:02;12.02;;;7.50;;
23266;SDS011;11802;53.160;8.214;2022-08-14T02:46:29;10.32;;;7.40;;
23266;SDS011;11802;53.160;8.214;2022-08-14T02:48:55;11.02;;;7.53;;
23266;SDS011;11802;53.160;8.214;2022-08-14T02:51:21;10.32;;;7.55;;
23266;SDS011;11802;53.160;8.214;2022-08-14T02:53:47;11.23;;;7.38;;
23266;SDS011;11802;53.160;8.214;2022-08-14T02:56:14;9.88;;;7.55;;
23266;SDS011;11802;53.160;8.214;2022-08-14T02:58:44;11.63;;;7.78;;
23266;SDS011;11802;53.160;8.214;2022-08-14T03:01:16;10.98;;;7.03;;
23266;SDS011;11802;53.160;8.214;2022-08-14T03:03:44;12.05;;;7.65;;
23266;SDS011;11802;53.160;8.214;2022-08-14T03:06:11;10.55;;;7.18;;
23266;SDS011;11802;53.160;8.214;2022-08-14T03:08:38;12.13;;;8.07;;
23266;SDS011;11802;53.160;8.214;2022-08-14T03:11:06;11.35;;;7.35;;
23266;SDS011;11802;53.160;8.214;2022-08-14T03:13:34;9.90;;;7.45;;
23266;SDS011;11802;53.160;8.214;2022-08-14T03:16:02;10.75;;;7.57;;
23266;SDS011;11802;53.160;8.214;2022-08-14T03:18:29;12.18;;;7.80;;
23266;SDS011;11802;53.160;8.214;2022-08-14T03:20:56;11.45;;;8.65;;
23266;SDS011;11802;53.160;8.214;2022-08-14T03:23:24;10.70;;;8.40;;
23266;SDS011;11802;53.160;8.214;2022-08-14T03:25:49;13.73;;;8.50;;
23266;SDS011;11802;53.160;8.214;2022-08-14T03:28:15;11.35;;;8.45;;
23266;SDS011;11802;53.160;8.214;2022-08-14T03:30:40;9.38;;;8.15;;
23266;SDS011;11802;53.160;8.214;2022-08-14T03:33:10;12.00;;;8.85;;
23266;SDS011;11802;53.160;8.214;2022-08-14T03:35:36;10.45;;;7.97;;
23266;SDS011;11802;53.160;8.214;2022-08-14T03:38:09;12.25;;;8.95;;
23266;SDS011;11802;53.160;8.214;2022-08-14T03:40:37;12.25;;;8.90;;
23266;SDS011;11802;53.160;8.214;2022-08-14T03:43:05;10.02;;;8.63;;
23266;SDS011;11802;53.160;8.214;2022-08-14T03:45:37;11.35;;;8.38;;
23266;SDS011;11802;53.160;8.214;2022-08-14T03:48:13;16.23;;;9.05;;
23266;SDS011;11802;53.160;8.214;2022-08-14T03:50:49;10.20;;;8.70;;
23266;SDS011;11802;53.160;8.214;2022-08-14T03:53:17;12.18;;;8.68;;
23266;SDS011;11802;53.160;8.214;2022-08-14T03:55:44;9.38;;;8.23;;
23266;SDS011;11802;53.160;8.214;2022-08-14T03:58:11;10.93;;;8.32;;
23266;SDS011;11802;53.160;8.214;2022-08-14T04:00:39;11.35;;;8.55;;
23266;SDS011;11802;53.160;8.214;2022-08-14T04:03:06;12.32;;;9.05;;
23266;SDS011;11802;53.160;8.214;2022-08-14T04:05:33;10.95;;;8.75;;
23266;SDS011;11802;53.160;8.214;2022-08-14T04:08:02;9.75;;;8.43;;
23266;SDS011;11802;53.160;8.214;2022-08-14T04:10:28;10.93;;;8.88;;
23266;SDS011;11802;53.160;8.214;2022-08-14T04:12:54;11.93;;;8.20;;
23266;SDS011;11802;53.160;8.214;2022-08-14T04:15:23;12.57;;;8.48;;
23266;SDS011;11802;53.160;8.214;2022-08-14T04:17:50;13.65;;;8.90;;
23266;SDS011;11802;53.160;8.214;2022-08-14T04:20:20;10.43;;;8.32;;
23266;SDS011;11802;53.160;8.214;2022-08-14T04:22:46;11.45;;;9.20;;
23266;SDS011;11802;53.160;8.214;2022-08-14T04:25:14;13.15;;;8.93;;
23266;SDS011;11802;53.160;8.214;2022-08-14T04:27:40;10.85;;;8.45;;
23266;SDS011;11802;53.160;8.214;2022-08-14T04:30:06;10.68;;;8.65;;
23266;SDS011;11802;53.160;8.214;2022-08-14T04:32:32;10.82;;;8.35;;
23266;SDS011;11802;53.160;8.214;2022-08-14T04:34:57;9.90;;;8.63;;
23266;SDS011;11802;53.160;8.214;2022-08-14T04:37:24;11.38;;;8.63;;
23266;SDS011;11802;53.160;8.214;2022-08-14T04:40:09;10.43;;;7.93;;
23266;SDS011;11802;53.160;8.214;2022-08-14T04:42:53;9.38;;;8.38;;
23266;SDS011;11802;53.160;8.214;2022-08-14T04:45:37;12.13;;;8.32;;
23266;SDS011;11802;53.160;8.214;2022-08-14T04:48:07;11.23;;;7.65;;
23266;SDS011;11802;53.160;8.214;2022-08-14T04:50:38;11.48;;;8.38;;
23266;SDS011;11802;53.160;8.214;2022-08-14T04:53:06;13.10;;;8.95;;
23266;SDS011;11802;53.160;8.214;2022-08-14T04:55:34;12.50;;;8.52;;
23266;SDS011;11802;53.160;8.214;2022-08-14T04:58:02;11.27;;;8.07;;
23266;SDS011;11802;53.160;8.214;2022-08-14T05:00:28;11.70;;;8.32;;
23266;SDS011;11802;53.160;8.214;2022-08-14T05:02:53;9.32;;;8.35;;
23266;SDS011;11802;53.160;8.214;2022-08-14T05:05:21;10.38;;;7.85;;
23266;SDS011;11802;53.160;8.214;2022-08-14T05:07:48;12.32;;;8.18;;
23266;SDS011;11802;53.160;8.214;2022-08-14T05:10:15;8.82;;;7.78;;
23266;SDS011;11802;53.160;8.214;2022-08-14T05:12:40;11.30;;;8.07;;
23266;SDS011;11802;53.160;8.214;2022-08-14T05:15:06;10.73;;;8.00;;
23266;SDS011;11802;53.160;8.214;2022-08-14T05:17:32;9.30;;;8.10;;
23266;SDS011;11802;53.160;8.214;2022-08-14T05:19:57;10.43;;;8.35;;
23266;SDS011;11802;53.160;8.214;2022-08-14T05:22:26;10.52;;;7.72;;
23266;SDS011;11802;53.160;8.214;2022-08-14T05:24:52;10.48;;;7.88;;
23266;SDS011;11802;53.160;8.214;2022-08-14T05:27:18;11.68;;;8.48;;
23266;SDS011;11802;53.160;8.214;2022-08-14T05:29:44;8.90;;;7.97;;
23266;SDS011;11802;53.160;8.214;2022-08-14T05:32:11;12.23;;;8.18;;
23266;SDS011;11802;53.160;8.214;2022-08-14T05:34:39;9.77;;;8.15;;
23266;SDS011;11802;53.160;8.214;2022-08-14T05:37:05;9.65;;;7.80;;
23266;SDS011;11802;53.160;8.214;2022-08-14T05:39:31;9.27;;;8.27;;
23266;SDS011;11802;53.160;8.214;2022-08-14T05:41:57;9.70;;;8.18;;
23266;SDS011;11802;53.160;8.214;2022-08-14T05:44:23;12.00;;;9.25;;
23266;SDS011;11802;53.160;8.214;2022-08-14T05:46:48;10.32;;;8.30;;
23266;SDS011;11802;53.160;8.214;2022-08-14T05:49:14;9.90;;;8.90;;
23266;SDS011;11802;53.160;8.214;2022-08-14T05:51:39;10.63;;;8.68;;
23266;SDS011;11802;53.160;8.214;2022-08-14T05:54:05;11.25;;;8.90;;
23266;SDS011;11802;53.160;8.214;2022-08-14T05:56:31;13.88;;;9.50;;
23266;SDS011;11802;53.160;8.214;2022-08-14T05:58:58;11.07;;;8.88;;
23266;SDS011;11802;53.160;8.214;2022-08-14T06:01:23;11.57;;;9.02;;
23266;SDS011;11802;53.160;8.214;2022-08-14T06:03:49;13.23;;;9.02;;
23266;SDS011;11802;53.160;8.214;2022-08-14T06:06:16;9.07;;;7.85;;
23266;SDS011;11802;53.160;8.214;2022-08-14T06:08:42;9.65;;;8.57;;
23266;SDS011;11802;53.160;8.214;2022-08-14T06:11:07;13.55;;;8.30;;
23266;SDS011;11802;53.160;8.214;2022-08-14T06:13:35;10.85;;;8.73;;
23266;SDS011;11802;53.160;8.214;2022-08-14T06:16:03;9.77;;;8.40;;
23266;SDS011;11802;53.160;8.214;2022-08-14T06:18:29;13.15;;;8.80;;
23266;SDS011;11802;53.160;8.214;2022-08-14T06:20:55;12.65;;;8.73;;
23266;SDS011;11802;53.160;8.214;2022-08-14T06:23:21;10.10;;;8.35;;
23266;SDS011;11802;53.160;8.214;2022-08-14T06:25:46;9.77;;;8.50;;
23266;SDS011;11802;53.160;8.214;2022-08-14T06:28:16;12.23;;;7.80;;
23266;SDS011;11802;53.160;8.214;2022-08-14T06:30:43;9.77;;;7.75;;
23266;SDS011;11802;53.160;8.214;2022-08-14T06:33:09;9.13;;;7.68;;
23266;SDS011;11802;53.160;8.214;2022-08-14T06:35:34;10.82;;;7.90;;
23266;SDS011;11802;53.160;8.214;2022-08-14T06:38:00;9.82;;;7.25;;
23266;SDS011;11802;53.160;8.214;2022-08-14T06:40:30;10.07;;;7.13;;
23266;SDS011;11802;53.160;8.214;2022-08-14T06:43:01;8.88;;;7.40;;
23266;SDS011;11802;53.160;8.214;2022-08-14T06:45:34;9.73;;;7.03;;
23266;SDS011;11802;53.160;8.214;2022-08-14T06:48:00;9.60;;;7.43;;
23266;SDS011;11802;53.160;8.214;2022-08-14T06:50:27;12.75;;;7.70;;
23266;SDS011;11802;53.160;8.214;2022-08-14T06:52:56;9.48;;;7.53;;
23266;SDS011;11802;53.160;8.214;2022-08-14T06:55:22;9.45;;;8.18;;
23266;SDS011;11802;53.160;8.214;2022-08-14T06:57:49;8.65;;;7.28;;
23266;SDS011;11802;53.160;8.214;2022-08-14T07:00:22;12.10;;;7.72;;
23266;SDS011;11802;53.160;8.214;2022-08-14T07:02:52;8.70;;;7.13;;
23266;SDS011;11802;53.160;8.214;2022-08-14T07:05:37;11.98;;;7.38;;
23266;SDS011;11802;53.160;8.214;2022-08-14T07:08:24;9.70;;;6.93;;
23266;SDS011;11802;53.160;8.214;2022-08-14T07:10:53;9.57;;;7.15;;
23266;SDS011;11802;53.160;8.214;2022-08-14T07:13:20;8.23;;;7.03;;
23266;SDS011;11802;53.160;8.214;2022-08-14T07:15:47;9.85;;;6.70;;
23266;SDS011;11802;53.160;8.214;2022-08-14T07:18:28;8.57;;;6.40;;
23266;SDS011;11802;53.160;8.214;2022-08-14T07:20:55;8.40;;;6.50;;
23266;SDS011;11802;53.160;8.214;2022-08-14T07:23:22;7.95;;;6.40;;
23266;SDS011;11802;53.160;8.214;2022-08-14T07:25:50;9.13;;;6.65;;
23266;SDS011;11802;53.160;8.214;2022-08-14T07:30:44;6.85;;;6.07;;
23266;SDS011;11802;53.160;8.214;2022-08-14T07:33:10;8.00;;;6.32;;
23266;SDS011;11802;53.160;8.214;2022-08-14T07:35:38;7.95;;;6.15;;
23266;SDS011;11802;53.160;8.214;2022-08-14T07:38:05;6.78;;;6.07;;
23266;SDS011;11802;53.160;8.214;2022-08-14T07:40:32;6.85;;;6.15;;
23266;SDS011;11802;53.160;8.214;2022-08-14T07:42:59;6.97;;;6.25;;
23266;SDS011;11802;53.160;8.214;2022-08-14T07:45:25;9.30;;;6.55;;
23266;SDS011;11802;53.160;8.214;2022-08-14T07:47:52;8.30;;;6.28;;
23266;SDS011;11802;53.160;8.214;2022-08-14T07:50:20;7.40;;;5.85;;
23266;SDS011;11802;53.160;8.214;2022-08-14T07:52:46;7.13;;;6.30;;
23266;SDS011;11802;53.160;8.214;2022-08-14T07:55:14;8.25;;;5.72;;
23266;SDS011;11802;53.160;8.214;2022-08-14T07:57:42;8.27;;;6.07;;
23266;SDS011;11802;53.160;8.214;2022-08-14T08:00:10;6.82;;;6.13;;
23266;SDS011;11802;53.160;8.214;2022-08-14T08:02:39;7.97;;;6.53;;
23266;SDS011;11802;53.160;8.214;2022-08-14T08:05:06;7.38;;;6.53;;
23266;SDS011;11802;53.160;8.214;2022-08-14T08:07:33;7.30;;;6.45;;
23266;SDS011;11802;53.160;8.214;2022-08-14T08:10:02;6.70;;;5.97;;
23266;SDS011;11802;53.160;8.214;2022-08-14T08:12:55;7.40;;;6.00;;
23266;SDS011;11802;53.160;8.214;2022-08-14T08:15:22;6.97;;;5.85;;
23266;SDS011;11802;53.160;8.214;2022-08-14T08:17:49;10.25;;;6.40;;
23266;SDS011;11802;53.160;8.214;2022-08-14T08:20:16;7.40;;;6.13;;
23266;SDS011;11802;53.160;8.214;2022-08-14T08:22:44;7.13;;;5.80;;
23266;SDS011;11802;53.160;8.214;2022-08-14T08:25:10;6.55;;;5.28;;
23266;SDS011;11802;53.160;8.214;2022-08-14T08:27:37;6.97;;;5.40;;
23266;SDS011;11802;53.160;8.214;2022-08-14T08:30:04;7.00;;;5.90;;
23266;SDS011;11802;53.160;8.214;2022-08-14T08:32:39;7.35;;;6.05;;
23266;SDS011;11802;53.160;8.214;2022-08-14T08:35:09;8.23;;;5.82;;
23266;SDS011;11802;53.160;8.214;2022-08-14T08:37:42;6.68;;;5.70;;
23266;SDS011;11802;53.160;8.214;2022-08-14T08:40:08;6.85;;;6.00;;
23266;SDS011;11802;53.160;8.214;2022-08-14T08:42:34;6.32;;;5.22;;
23266;SDS011;11802;53.160;8.214;2022-08-14T08:44:59;6.78;;;6.07;;
23266;SDS011;11802;53.160;8.214;2022-08-14T08:47:25;6.30;;;5.70;;
23266;SDS011;11802;53.160;8.214;2022-08-14T08:50:01;7.15;;;5.68;;
23266;SDS011;11802;53.160;8.214;2022-08-14T08:52:27;7.78;;;5.57;;
23266;SDS011;11802;53.160;8.214;2022-08-14T08:54:56;7.15;;;6.00;;
23266;SDS011;11802;53.160;8.214;2022-08-14T08:57:21;7.05;;;6.30;;
23266;SDS011;11802;53.160;8.214;2022-08-14T08:59:47;7.03;;;6.05;;
23266;SDS011;11802;53.160;8.214;2022-08-14T09:02:14;10.40;;;6.50;;
23266;SDS011;11802;53.160;8.214;2022-08-14T09:04:42;8.23;;;6.40;;
23266;SDS011;11802;53.160;8.214;2022-08-14T09:07:11;8.52;;;6.72;;
23266;SDS011;11802;53.160;8.214;2022-08-14T09:09:38;7.65;;;6.80;;
23266;SDS011;11802;53.160;8.214;2022-08-14T09:12:16;7.78;;;6.53;;
23266;SDS011;11802;53.160;8.214;2022-08-14T09:14:43;8.30;;;6.35;;
23266;SDS011;11802;53.160;8.214;2022-08-14T09:17:12;7.13;;;6.03;;
23266;SDS011;11802;53.160;8.214;2022-08-14T09:19:38;10.43;;;6.35;;
23266;SDS011;11802;53.160;8.214;2022-08-14T09:22:05;7.20;;;6.50;;
23266;SDS011;11802;53.160;8.214;2022-08-14T09:24:30;7.95;;;6.70;;
23266;SDS011;11802;53.160;8.214;2022-08-14T09:26:57;8.82;;;6.50;;
23266;SDS011;11802;53.160;8.214;2022-08-14T09:29:22;8.07;;;7.10;;
23266;SDS011;11802;53.160;8.214;2022-08-14T09:31:49;8.18;;;6.80;;
23266;SDS011;11802;53.160;8.214;2022-08-14T09:34:41;8.10;;;6.80;;
23266;SDS011;11802;53.160;8.214;2022-08-14T09:40:13;8.48;;;6.85;;
23266;SDS011;11802;53.160;8.214;2022-08-14T09:42:56;8.00;;;7.20;;
23266;SDS011;11802;53.160;8.214;2022-08-14T09:45:45;8.30;;;7.45;;
23266;SDS011;11802;53.160;8.214;2022-08-14T09:48:13;8.82;;;7.53;;
23266;SDS011;11802;53.160;8.214;2022-08-14T09:50:55;8.07;;;7.13;;
23266;SDS011;11802;53.160;8.214;2022-08-14T09:53:38;10.60;;;7.10;;
23266;SDS011;11802;53.160;8.214;2022-08-14T09:56:11;11.02;;;7.72;;
23266;SDS011;11802;53.160;8.214;2022-08-14T09:58:41;8.20;;;7.13;;
23266;SDS011;11802;53.160;8.214;2022-08-14T10:03:50;8.63;;;6.88;;
23266;SDS011;11802;53.160;8.214;2022-08-14T10:06:24;8.18;;;6.43;;
23266;SDS011;11802;53.160;8.214;2022-08-14T10:08:57;7.30;;;6.47;;
23266;SDS011;11802;53.160;8.214;2022-08-14T10:11:29;7.65;;;6.70;;
23266;SDS011;11802;53.160;8.214;2022-08-14T10:14:19;8.13;;;6.65;;
23266;SDS011;11802;53.160;8.214;2022-08-14T10:16:48;9.85;;;7.55;;
23266;SDS011;11802;53.160;8.214;2022-08-14T10:19:17;8.63;;;6.35;;
23266;SDS011;11802;53.160;8.214;2022-08-14T10:21:44;8.57;;;7.15;;
23266;SDS011;11802;53.160;8.214;2022-08-14T10:24:31;8.85;;;6.90;;
23266;SDS011;11802;53.160;8.214;2022-08-14T10:27:12;8.60;;;6.70;;
23266;SDS011;11802;53.160;8.214;2022-08-14T10:29:43;7.90;;;6.57;;
23266;SDS011;11802;53.160;8.214;2022-08-14T10:32:13;8.23;;;6.95;;
23266;SDS011;11802;53.160;8.214;2022-08-14T10:34:39;9.45;;;6.90;;
23266;SDS011;11802;53.160;8.214;2022-08-14T10:37:09;9.48;;;6.90;;
23266;SDS011;11802;53.160;8.214;2022-08-14T10:39:36;7.80;;;6.80;;
23266;SDS011;11802;53.160;8.214;2022-08-14T10:42:07;9.45;;;7.10;;
23266;SDS011;11802;53.160;8.214;2022-08-14T10:44:45;8.07;;;7.00;;
23266;SDS011;11802;53.160;8.214;2022-08-14T10:47:14;8.45;;;6.65;;
23266;SDS011;11802;53.160;8.214;2022-08-14T10:49:44;8.43;;;6.97;;
23266;SDS011;11802;53.160;8.214;2022-08-14T10:52:22;9.57;;;7.22;;
23266;SDS011;11802;53.160;8.214;2022-08-14T10:55:09;9.50;;;7.38;;
23266;SDS011;11802;53.160;8.214;2022-08-14T10:57:48;10.52;;;7.32;;
23266;SDS011;11802;53.160;8.214;2022-08-14T11:00:16;8.77;;;7.18;;
23266;SDS011;11802;53.160;8.214;2022-08-14T11:02:54;8.07;;;7.00;;
23266;SDS011;11802;53.160;8.214;2022-08-14T11:05:25;8.00;;;6.80;;
23266;SDS011;11802;53.160;8.214;2022-08-14T11:08:02;9.20;;;6.90;;
23266;SDS011;11802;53.160;8.214;2022-08-14T11:10:38;12.57;;;7.43;;
23266;SDS011;11802;53.160;8.214;2022-08-14T11:13:04;8.88;;;7.25;;
23266;SDS011;11802;53.160;8.214;2022-08-14T11:15:32;10.27;;;7.45;;
23266;SDS011;11802;53.160;8.214;2022-08-14T11:17:58;8.30;;;7.35;;
23266;SDS011;11802;53.160;8.214;2022-08-14T11:20:28;8.32;;;7.05;;
23266;SDS011;11802;53.160;8.214;2022-08-14T11:22:55;13.40;;;7.78;;
23266;SDS011;11802;53.160;8.214;2022-08-14T11:25:22;11.52;;;7.25;;
23266;SDS011;11802;53.160;8.214;2022-08-14T11:27:51;10.45;;;7.10;;
23266;SDS011;11802;53.160;8.214;2022-08-14T11:30:20;8.50;;;7.18;;
23266;SDS011;11802;53.160;8.214;2022-08-14T11:32:47;9.07;;;7.50;;
23266;SDS011;11802;53.160;8.214;2022-08-14T11:35:16;12.00;;;7.35;;
23266;SDS011;11802;53.160;8.214;2022-08-14T11:37:50;7.90;;;7.10;;
23266;SDS011;11802;53.160;8.214;2022-08-14T11:40:23;8.50;;;6.93;;
23266;SDS011;11802;53.160;8.214;2022-08-14T11:42:51;8.57;;;7.38;;
23266;SDS011;11802;53.160;8.214;2022-08-14T11:45:21;10.38;;;7.85;;
23266;SDS011;11802;53.160;8.214;2022-08-14T11:47:49;8.23;;;6.93;;
23266;SDS011;11802;53.160;8.214;2022-08-14T11:50:17;8.52;;;7.68;;
23266;SDS011;11802;53.160;8.214;2022-08-14T11:52:48;11.27;;;7.20;;
23266;SDS011;11802;53.160;8.214;2022-08-14T11:55:15;9.43;;;7.30;;
23266;SDS011;11802;53.160;8.214;2022-08-14T11:57:43;9.90;;;6.80;;
23266;SDS011;11802;53.160;8.214;2022-08-14T12:00:13;8.43;;;6.93;;
23266;SDS011;11802;53.160;8.214;2022-08-14T12:02:48;11.40;;;6.95;;
23266;SDS011;11802;53.160;8.214;2022-08-14T12:05:33;7.95;;;6.90;;
23266;SDS011;11802;53.160;8.214;2022-08-14T12:08:03;7.50;;;6.70;;
23266;SDS011;11802;53.160;8.214;2022-08-14T12:10:34;10.45;;;7.55;;
23266;SDS011;11802;53.160;8.214;2022-08-14T12:13:10;11.80;;;7.30;;
23266;SDS011;11802;53.160;8.214;2022-08-14T12:15:44;8.27;;;6.65;;
23266;SDS011;11802;53.160;8.214;2022-08-14T12:18:13;8.57;;;6.55;;
23266;SDS011;11802;53.160;8.214;2022-08-14T12:20:40;10.00;;;7.32;;
23266;SDS011;11802;53.160;8.214;2022-08-14T12:23:19;7.30;;;6.07;;
23266;SDS011;11802;53.160;8.214;2022-08-14T12:25:46;8.40;;;6.75;;
23266;SDS011;11802;53.160;8.214;2022-08-14T12:28:12;8.48;;;6.80;;
23266;SDS011;11802;53.160;8.214;2022-08-14T12:30:40;7.55;;;6.53;;
23266;SDS011;11802;53.160;8.214;2022-08-14T12:33:24;9.27;;;7.30;;
23266;SDS011;11802;53.160;8.214;2022-08-14T12:35:50;7.38;;;6.28;;
23266;SDS011;11802;53.160;8.214;2022-08-14T12:38:17;8.07;;;6.38;;
23266;SDS011;11802;53.160;8.214;2022-08-14T12:40:50;8.38;;;6.25;;
23266;SDS011;11802;53.160;8.214;2022-08-14T12:43:17;7.82;;;7.00;;
23266;SDS011;11802;53.160;8.214;2022-08-14T12:45:45;7.47;;;6.30;;
23266;SDS011;11802;53.160;8.214;2022-08-14T12:48:19;7.93;;;6.93;;
23266;SDS011;11802;53.160;8.214;2022-08-14T12:50:46;8.25;;;6.53;;
23266;SDS011;11802;53.160;8.214;2022-08-14T12:53:12;7.88;;;6.63;;
23266;SDS011;11802;53.160;8.214;2022-08-14T12:55:40;8.88;;;6.32;;
23266;SDS011;11802;53.160;8.214;2022-08-14T12:58:07;8.43;;;6.85;;
23266;SDS011;11802;53.160;8.214;2022-08-14T13:00:35;7.90;;;6.45;;
23266;SDS011;11802;53.160;8.214;2022-08-14T13:03:03;8.73;;;6.45;;
23266;SDS011;11802;53.160;8.214;2022-08-14T13:05:30;8.73;;;6.35;;
23266;SDS011;11802;53.160;8.214;2022-08-14T13:08:03;8.43;;;6.00;;
23266;SDS011;11802;53.160;8.214;2022-08-14T13:10:31;8.63;;;6.65;;
23266;SDS011;11802;53.160;8.214;2022-08-14T13:12:57;10.27;;;6.90;;
23266;SDS011;11802;53.160;8.214;2022-08-14T13:15:23;7.50;;;6.22;;
23266;SDS011;11802;53.160;8.214;2022-08-14T13:17:51;9.43;;;7.00;;
23266;SDS011;11802;53.160;8.214;2022-08-14T13:20:20;12.40;;;6.40;;
23266;SDS011;11802;53.160;8.214;2022-08-14T13:22:47;8.85;;;6.82;;
23266;SDS011;11802;53.160;8.214;2022-08-14T13:25:14;7.15;;;6.40;;
23266;SDS011;11802;53.160;8.214;2022-08-14T13:27:45;7.85;;;6.45;;
23266;SDS011;11802;53.160;8.214;2022-08-14T13:30:13;8.88;;;6.57;;
23266;SDS011;11802;53.160;8.214;2022-08-14T13:32:40;11.52;;;6.50;;
23266;SDS011;11802;53.160;8.214;2022-08-14T13:35:09;10.18;;;6.53;;
23266;SDS011;11802;53.160;8.214;2022-08-14T13:37:35;9.63;;;6.20;;
23266;SDS011;11802;53.160;8.214;2022-08-14T13:40:02;8.13;;;6.03;;
23266;SDS011;11802;53.160;8.214;2022-08-14T13:42:29;10.93;;;6.60;;
23266;SDS011;11802;53.160;8.214;2022-08-14T13:44:55;8.93;;;6.45;;
23266;SDS011;11802;53.160;8.214;2022-08-14T13:47:24;7.82;;;6.90;;
23266;SDS011;11802;53.160;8.214;2022-08-14T13:49:58;9.93;;;6.93;;
23266;SDS011;11802;53.160;8.214;2022-08-14T13:52:32;8.50;;;6.07;;
23266;SDS011;11802;53.160;8.214;2022-08-14T13:55:04;8.55;;;6.60;;
23266;SDS011;11802;53.160;8.214;2022-08-14T13:57:33;8.60;;;6.25;;
23266;SDS011;11802;53.160;8.214;2022-08-14T14:00:05;8.93;;;6.72;;
23266;SDS011;11802;53.160;8.214;2022-08-14T14:02:40;9.85;;;6.55;;
23266;SDS011;11802;53.160;8.214;2022-08-14T14:05:08;7.85;;;6.30;;
23266;SDS011;11802;53.160;8.214;2022-08-14T14:07:37;7.50;;;6.50;;
23266;SDS011;11802;53.160;8.214;2022-08-14T14:10:07;10.52;;;6.85;;
23266;SDS011;11802;53.160;8.214;2022-08-14T14:12:34;8.25;;;6.05;;
23266;SDS011;11802;53.160;8.214;2022-08-14T14:15:05;10.15;;;6.80;;
23266;SDS011;11802;53.160;8.214;2022-08-14T14:17:34;7.47;;;6.47;;
23266;SDS011;11802;53.160;8.214;2022-08-14T14:20:00;8.23;;;6.75;;
23266;SDS011;11802;53.160;8.214;2022-08-14T14:22:28;9.23;;;6.93;;
23266;SDS011;11802;53.160;8.214;2022-08-14T14:24:53;7.03;;;6.00;;
23266;SDS011;11802;53.160;8.214;2022-08-14T14:27:20;7.53;;;6.30;;
23266;SDS011;11802;53.160;8.214;2022-08-14T14:29:48;9.70;;;7.10;;
23266;SDS011;11802;53.160;8.214;2022-08-14T14:32:15;8.82;;;6.88;;
23266;SDS011;11802;53.160;8.214;2022-08-14T14:34:44;9.35;;;6.82;;
23266;SDS011;11802;53.160;8.214;2022-08-14T14:37:10;8.75;;;6.82;;
23266;SDS011;11802;53.160;8.214;2022-08-14T14:39:39;9.10;;;6.60;;
23266;SDS011;11802;53.160;8.214;2022-08-14T14:42:06;9.98;;;6.80;;
23266;SDS011;11802;53.160;8.214;2022-08-14T14:44:34;9.02;;;6.90;;
23266;SDS011;11802;53.160;8.214;2022-08-14T14:47:06;8.32;;;6.45;;
23266;SDS011;11802;53.160;8.214;2022-08-14T14:49:33;7.35;;;6.28;;
23266;SDS011;11802;53.160;8.214;2022-08-14T14:51:59;8.25;;;6.57;;
23266;SDS011;11802;53.160;8.214;2022-08-14T14:54:29;9.77;;;7.25;;
23266;SDS011;11802;53.160;8.214;2022-08-14T14:56:57;9.40;;;7.43;;
23266;SDS011;11802;53.160;8.214;2022-08-14T14:59:29;9.68;;;7.35;;
23266;SDS011;11802;53.160;8.214;2022-08-14T15:01:59;9.23;;;7.63;;
23266;SDS011;11802;53.160;8.214;2022-08-14T15:04:35;9.10;;;6.90;;
23266;SDS011;11802;53.160;8.214;2022-08-14T15:07:02;8.32;;;6.68;;